Time;durP1;ratioP1;P1;durP2;ratioP2;P2;SDS_P1;SDS_P2;PMS_P1;PMS_P2;Temp;Humidity;BMP_temperature;BMP_pressure;BME280_temperature;BME280_humidity;BME280_pressure;Samples;Min_cycle;Max_cycle;Signal;HPM_P1;HPM_P2
2021/10/12 00:00:17;;;;;;;77.37;40.13;;;;;;;8.14;57.05;100557.71;126348;1099;104139;-78
2021/10/12 00:03:05;;;;;;;77.60;40.03;;;;;;;8.13;57.76;100550.68;126255;1099;104853;-76
2021/10/12 00:05:34;;;;;;;78.37;40.93;;;;;;;8.12;57.34;100548.00;126196;1099;104326;-78
2021/10/12 00:08:03;;;;;;;71.67;38.83;;;;;;;8.09;57.08;100551.39;126336;1099;104140;-78
2021/10/12 00:10:30;;;;;;;76.73;41.00;;;;;;;8.05;57.27;100545.09;126317;1099;104153;-78
2021/10/12 00:12:59;;;;;;;77.97;39.07;;;;;;;8.02;57.87;100538.84;126267;1099;104328;-77
2021/10/12 00:15:28;;;;;;;74.97;38.00;;;;;;;8.00;57.68;100537.89;126283;1099;104149;-77
2021/10/12 00:17:56;;;;;;;72.33;37.57;;;;;;;7.99;57.73;100536.97;126286;1099;104210;-78
2021/10/12 00:20:24;;;;;;;73.87;36.87;;;;;;;8.04;58.22;100539.80;126337;1099;104185;-79
2021/10/12 00:22:51;;;;;;;73.73;39.50;;;;;;;8.08;57.59;100533.91;126322;1099;104133;-78
2021/10/12 00:25:19;;;;;;;73.67;39.10;;;;;;;8.13;57.67;100532.38;126283;1099;104130;-79
2021/10/12 00:27:49;;;;;;;76.95;40.65;;;;;;;8.18;57.70;100533.52;126356;1099;104137;-78
2021/10/12 00:30:17;;;;;;;79.17;40.80;;;;;;;8.21;58.17;100525.81;126311;1099;104130;-78
2021/10/12 00:32:45;;;;;;;80.70;40.77;;;;;;;8.25;58.24;100522.49;126280;1099;104216;-78
2021/10/12 00:35:15;;;;;;;74.63;39.87;;;;;;;8.22;58.53;100519.73;126256;1097;105584;-78
2021/10/12 00:37:43;;;;;;;78.40;39.80;;;;;;;8.14;58.09;100507.17;126325;1099;104146;-79
2021/10/12 00:40:11;;;;;;;76.27;41.00;;;;;;;8.10;58.54;100509.64;126186;1099;104206;-79
2021/10/12 00:42:39;;;;;;;77.70;40.33;;;;;;;8.06;58.90;100505.08;126213;1099;104641;-78
2021/10/12 00:45:10;;;;;;;73.65;39.00;;;;;;;8.03;58.64;100498.84;126135;1099;104306;-78
2021/10/12 00:47:39;;;;;;;74.47;37.53;;;;;;;8.05;58.84;100492.83;126205;1099;104185;-78
2021/10/12 00:50:08;;;;;;;72.27;36.43;;;;;;;8.07;58.46;100495.52;126219;1099;104172;-79
2021/10/12 00:52:36;;;;;;;73.40;36.27;;;;;;;8.12;58.47;100488.80;126192;1099;104344;-79
2021/10/12 00:55:08;;;;;;;72.90;38.43;;;;;;;8.18;58.56;100491.69;126192;1099;104303;-78
2021/10/12 00:57:36;;;;;;;74.63;39.17;;;;;;;8.19;59.34;100480.39;126194;1099;104421;-78
2021/10/12 01:00:05;;;;;;;72.37;38.77;;;;;;;8.19;58.57;100484.73;126198;1099;104300;-79
2021/10/12 01:02:35;;;;;;;74.13;39.60;;;;;;;8.19;58.83;100475.16;126210;1099;104235;-79
2021/10/12 01:05:04;;;;;;;74.13;39.43;;;;;;;8.18;58.81;100476.01;126139;1099;104146;-78
2021/10/12 01:07:31;;;;;;;76.20;38.87;;;;;;;8.12;59.30;100472.20;125410;1099;104147;-78
2021/10/12 01:10:03;;;;;;;73.57;39.17;;;;;;;8.06;58.85;100471.11;125394;1098;104316;-79
2021/10/12 01:12:31;;;;;;;78.33;40.87;;;;;;;8.04;59.19;100471.85;126250;1099;104139;-77
2021/10/12 01:14:59;;;;;;;78.63;40.33;;;;;;;8.01;59.28;100471.72;126369;1099;104153;-78
2021/10/12 01:17:27;;;;;;;79.07;39.13;;;;;;;8.00;59.52;100469.95;126261;1099;104406;-78
2021/10/12 01:19:54;;;;;;;73.87;37.73;;;;;;;8.03;59.06;100462.25;126295;1099;104339;-78
2021/10/12 01:22:22;;;;;;;69.03;36.97;;;;;;;8.15;59.08;100469.73;126375;1099;104149;-78
2021/10/12 01:24:50;;;;;;;73.93;37.50;;;;;;;8.18;59.03;100460.33;126327;1099;104149;-78
2021/10/12 01:27:22;;;;;;;81.27;39.60;;;;;;;8.20;59.37;100453.44;126321;1099;104150;-78
2021/10/12 01:29:50;;;;;;;71.73;39.40;;;;;;;8.21;59.37;100451.70;126284;1099;104156;-78
2021/10/12 01:32:18;;;;;;;69.50;38.83;;;;;;;8.19;59.33;100441.18;126293;1097;104226;-79
2021/10/12 01:34:46;;;;;;;73.30;37.33;;;;;;;8.19;59.16;100441.18;126342;1099;104146;-79
2021/10/12 01:37:14;;;;;;;73.70;39.03;;;;;;;8.17;59.41;100437.62;126238;1099;104137;-78
2021/10/12 01:39:42;;;;;;;74.23;39.90;;;;;;;8.13;59.41;100440.91;126322;1096;104210;-79
2021/10/12 01:42:13;;;;;;;76.83;38.67;;;;;;;8.08;59.45;100437.20;126290;1099;104191;-78
2021/10/12 01:44:41;;;;;;;75.53;39.23;;;;;;;8.02;59.37;100436.93;126323;1099;104140;-77
2021/10/12 01:47:09;;;;;;;75.30;40.03;;;;;;;7.98;59.86;100432.38;126287;1099;104155;-77
2021/10/12 01:49:36;;;;;;;77.37;38.37;;;;;;;7.96;60.10;100431.42;126334;1099;104146;-79
2021/10/12 01:52:05;;;;;;;73.57;37.33;;;;;;;7.91;60.05;100429.48;126296;1099;104133;-79
2021/10/12 01:54:33;;;;;;;69.37;36.63;;;;;;;7.91;60.25;100425.99;126335;1099;104216;-78
2021/10/12 01:57:01;;;;;;;71.67;38.03;;;;;;;7.88;60.50;100421.55;126280;1099;105522;-78
2021/10/12 01:59:29;;;;;;;74.80;38.80;;;;;;;7.86;60.32;100420.56;126303;1099;104150;-78
2021/10/12 02:02:01;;;;;;;75.03;38.67;;;;;;;7.84;60.14;100426.56;126236;1099;104217;-78
2021/10/12 02:04:29;;;;;;;76.03;39.47;;;;;;;7.79;60.58;100423.73;126319;1099;104146;-79
2021/10/12 02:06:57;;;;;;;73.80;38.03;;;;;;;7.78;60.68;100424.55;126279;1098;104252;-78
2021/10/12 02:09:25;;;;;;;74.00;38.07;;;;;;;7.75;60.49;100424.41;126298;1099;104153;-79
2021/10/12 02:11:53;;;;;;;70.90;35.30;;;;;;;7.72;60.64;100426.87;126304;1098;104159;-78
2021/10/12 02:14:22;;;;;;;73.97;35.87;;;;;;;7.72;60.59;100421.66;126298;1099;104175;-77
2021/10/12 02:16:50;;;;;;;67.30;36.00;;;;;;;7.73;60.45;100415.63;126275;1098;104144;-78
2021/10/12 02:19:19;;;;;;;67.60;35.50;;;;;;;7.73;60.75;100426.95;126322;1099;104210;-78
2021/10/12 02:21:46;;;;;;;68.47;35.97;;;;;;;7.74;61.01;100420.00;126320;1097;104290;-78
2021/10/12 02:24:14;;;;;;;75.07;36.80;;;;;;;7.73;61.00;100419.11;126323;1099;104194;-78
2021/10/12 02:26:42;;;;;;;76.23;38.70;;;;;;;7.74;61.11;100420.00;126263;1099;104227;-79
2021/10/12 02:29:10;;;;;;;70.83;36.97;;;;;;;7.74;60.66;100423.52;126336;1099;104143;-78
2021/10/12 02:31:38;;;;;;;68.07;35.80;;;;;;;7.75;60.58;100421.80;126293;1096;104194;-78
2021/10/12 02:34:06;;;;;;;73.50;36.00;;;;;;;7.77;60.88;100422.75;126327;1099;104191;-78
2021/10/12 02:36:34;;;;;;;75.00;36.37;;;;;;;7.80;60.51;100415.05;126325;1099;104189;-79
2021/10/12 02:39:02;;;;;;;72.33;34.93;;;;;;;7.89;60.94;100425.04;126193;1099;104676;-78
2021/10/12 02:41:30;;;;;;;74.50;35.13;;;;;;;7.98;61.03;100425.45;126314;1099;104210;-78
2021/10/12 02:43:58;;;;;;;69.73;37.07;;;;;;;8.06;61.10;100421.45;126322;1099;104263;-78
2021/10/12 02:46:25;;;;;;;68.00;36.27;;;;;;;8.10;60.47;100415.55;126310;1097;104184;-78
2021/10/12 02:48:55;;;;;;;70.17;36.80;;;;;;;8.12;60.79;100407.78;126166;1099;104185;-78
2021/10/12 02:51:22;;;;;;;68.47;35.63;;;;;;;8.16;60.89;100407.06;126179;1098;104245;-78
2021/10/12 02:53:50;;;;;;;72.37;35.57;;;;;;;8.14;60.80;100405.23;126185;1098;104169;-78
2021/10/12 02:56:18;;;;;;;66.00;36.00;;;;;;;8.13;60.93;100400.82;126226;1099;104309;-79
2021/10/12 02:58:46;;;;;;;70.23;36.27;;;;;;;8.09;60.49;100397.19;126095;1099;104424;-78
2021/10/12 03:01:14;;;;;;;71.40;36.00;;;;;;;8.04;61.17;100393.45;126197;1099;104201;-78
2021/10/12 03:03:42;;;;;;;66.90;34.50;;;;;;;8.01;60.93;100398.55;125424;1099;104280;-77
2021/10/12 03:06:09;;;;;;;61.77;32.47;;;;;;;7.99;60.85;100400.20;126209;1099;104153;-78
2021/10/12 03:08:37;;;;;;;70.43;34.33;;;;;;;8.01;60.70;100393.32;126139;1099;104137;-79
2021/10/12 03:11:28;;;;;;;70.00;35.00;;;;;;;8.10;60.98;100383.27;126187;1099;104226;-78
2021/10/12 03:14:15;;;;;;;63.53;34.27;;;;;;;8.20;61.24;100384.59;126188;1099;104219;-77
2021/10/12 03:16:43;;;;;;;65.90;35.53;;;;;;;8.22;61.28;100382.92;126209;1099;104259;-77
2021/10/12 03:19:12;;;;;;;64.00;33.27;;;;;;;8.22;61.48;100385.54;125370;1099;104192;-78
2021/10/12 03:21:48;;;;;;;66.37;34.77;;;;;;;8.22;61.09;100381.20;126193;1099;104140;-78
2021/10/12 03:24:16;;;;;;;65.93;35.53;;;;;;;8.24;61.08;100379.56;126201;1099;104344;-78
2021/10/12 03:26:44;;;;;;;69.90;35.47;;;;;;;8.23;61.10;100369.04;126238;1099;104284;-78
2021/10/12 03:29:12;;;;;;;71.43;33.90;;;;;;;8.23;61.26;100374.27;126217;1099;104197;-78
2021/10/12 03:31:40;;;;;;;70.83;34.87;;;;;;;8.23;61.36;100384.73;126361;1099;104149;-78
2021/10/12 03:34:08;;;;;;;66.63;34.03;;;;;;;8.21;61.34;100384.66;126284;1099;104271;-79
2021/10/12 03:36:39;;;;;;;63.43;33.37;;;;;;;8.20;61.34;100369.79;126287;1099;104599;-78
2021/10/12 03:39:09;;;;;;;63.27;32.73;;;;;;;8.20;61.00;100371.52;126284;1099;104162;-77
2021/10/12 03:41:37;;;;;;;58.40;31.60;;;;;;;8.20;60.92;100372.41;126347;1099;104139;-77
2021/10/12 03:44:05;;;;;;;63.13;32.03;;;;;;;8.21;61.71;100374.20;126357;1099;104144;-77
2021/10/12 03:46:36;;;;;;;67.03;33.17;;;;;;;8.27;61.36;100382.31;126357;1099;104143;-78
2021/10/12 03:49:04;;;;;;;64.07;33.43;;;;;;;8.31;61.59;100375.48;126216;1099;104274;-78
2021/10/12 03:51:31;;;;;;;60.87;32.30;;;;;;;8.30;61.31;100372.80;126271;1099;104216;-78
2021/10/12 03:53:59;;;;;;;66.53;33.73;;;;;;;8.26;61.69;100374.41;126299;1099;104142;-78
2021/10/12 03:56:27;;;;;;;67.77;33.53;;;;;;;8.26;61.10;100377.89;126336;1096;104160;-78
2021/10/12 03:58:55;;;;;;;60.37;33.80;;;;;;;8.24;61.71;100369.11;126246;1099;104146;-78
2021/10/12 04:01:23;;;;;;;58.77;33.00;;;;;;;8.21;61.45;100376.81;126262;1099;104268;-78
2021/10/12 04:03:52;;;;;;;61.70;33.90;;;;;;;8.17;61.55;100372.27;126304;1099;104136;-77
2021/10/12 04:06:21;;;;;;;69.90;35.57;;;;;;;8.16;61.81;100383.54;126332;1098;104133;-78
2021/10/12 04:08:54;;;;;;;62.73;33.63;;;;;;;8.16;61.32;100375.70;126286;1099;104284;-78
2021/10/12 04:11:27;;;;;;;61.87;34.10;;;;;;;8.15;61.55;100368.70;126290;1099;104392;-78
2021/10/12 04:13:56;;;;;;;64.87;32.03;;;;;;;8.16;62.10;100364.36;126285;1099;104389;-78
2021/10/12 04:16:25;;;;;;;54.47;30.47;;;;;;;8.14;61.41;100353.84;126326;1097;104154;-78
2021/10/12 04:18:53;;;;;;;58.30;30.97;;;;;;;8.14;61.90;100355.58;126298;1099;104194;-77
2021/10/12 04:21:21;;;;;;;61.63;32.47;;;;;;;8.11;62.12;100358.94;126324;1099;104210;-78
2021/10/12 04:23:49;;;;;;;65.05;32.90;;;;;;;8.09;61.28;100361.48;126279;1099;104136;-78
2021/10/12 04:26:19;;;;;;;64.63;32.70;;;;;;;8.07;61.25;100352.70;126280;1099;104319;-78
2021/10/12 04:28:47;;;;;;;62.23;34.03;;;;;;;8.07;61.46;100349.16;126299;1099;104143;-78
2021/10/12 04:31:15;;;;;;;59.10;33.03;;;;;;;8.05;61.32;100348.22;126315;1099;104149;-78
2021/10/12 04:33:43;;;;;;;68.75;34.20;;;;;;;8.06;61.60;100350.02;126295;1099;104191;-79
2021/10/12 04:36:11;;;;;;;64.37;35.03;;;;;;;8.12;61.35;100346.75;126313;1099;104162;-78
2021/10/12 04:38:39;;;;;;;67.73;33.17;;;;;;;8.15;61.71;100350.41;126312;1098;104219;-79
2021/10/12 04:41:07;;;;;;;67.30;32.83;;;;;;;8.19;61.77;100341.86;126289;1099;104201;-79
2021/10/12 04:43:38;;;;;;;56.20;29.80;;;;;;;8.20;61.57;100345.38;126258;1099;104568;-79
2021/10/12 04:46:06;;;;;;;58.87;30.53;;;;;;;8.23;62.06;100348.13;126305;1099;104267;-79
2021/10/12 04:48:34;;;;;;;63.60;30.67;;;;;;;8.26;61.54;100337.80;126243;1099;104707;-79
2021/10/12 04:51:02;;;;;;;66.47;32.07;;;;;;;8.33;61.88;100338.95;126227;1097;104165;-78
2021/10/12 04:53:30;;;;;;;72.10;33.90;;;;;;;8.43;61.30;100338.48;126108;1099;104146;-79
2021/10/12 04:55:59;;;;;;;66.13;32.67;;;;;;;8.51;61.49;100344.06;126200;1099;104162;-78
2021/10/12 04:58:27;;;;;;;62.10;32.85;;;;;;;8.55;61.53;100351.22;126335;1099;104290;-78
2021/10/12 05:00:57;;;;;;;65.87;33.90;;;;;;;8.57;61.45;100347.84;126156;1099;104168;-79
2021/10/12 05:03:25;;;;;;;61.90;31.90;;;;;;;8.61;61.43;100348.86;126264;1098;104293;-79
2021/10/12 05:05:53;;;;;;;61.20;32.67;;;;;;;8.61;61.14;100357.59;126287;1099;104200;-78
2021/10/12 05:08:23;;;;;;;66.97;32.63;;;;;;;8.62;61.40;100354.16;126259;1099;104219;-78
2021/10/12 05:10:52;;;;;;;69.57;34.50;;;;;;;8.65;61.78;100358.63;126234;1099;104152;-78
2021/10/12 05:13:21;;;;;;;73.33;34.33;;;;;;;8.69;61.73;100365.75;126223;1099;104156;-78
2021/10/12 05:15:50;;;;;;;61.97;32.93;;;;;;;8.74;61.38;100369.47;126082;1099;104287;-78
2021/10/12 05:18:21;;;;;;;66.23;33.53;;;;;;;8.77;61.66;100374.83;126241;1099;104201;-77
2021/10/12 05:20:50;;;;;;;71.37;33.83;;;;;;;8.77;61.59;100371.30;126207;1099;104175;-77
2021/10/12 05:23:19;;;;;;;71.90;35.80;;;;;;;8.77;61.06;100361.75;126167;1099;104201;-77
2021/10/12 05:25:49;;;;;;;67.17;33.57;;;;;;;8.81;61.82;100365.38;126081;1097;104325;-78
2021/10/12 05:28:18;;;;;;;64.87;33.33;;;;;;;8.85;61.36;100372.53;126143;1099;104278;-79
2021/10/12 05:30:46;;;;;;;64.50;33.37;;;;;;;8.92;61.20;100368.42;126170;1099;104176;-79
2021/10/12 05:33:17;;;;;;;70.95;34.85;;;;;;;9.01;61.38;100358.33;126234;1099;104204;-79
2021/10/12 05:35:47;;;;;;;72.40;34.77;;;;;;;9.10;61.08;100360.39;126191;1099;104271;-79
2021/10/12 05:38:20;;;;;;;67.70;35.10;;;;;;;9.13;61.53;100355.28;126207;1099;104201;-79
2021/10/12 05:40:52;;;;;;;67.27;34.13;;;;;;;9.12;61.52;100356.13;126121;1099;104262;-80
2021/10/12 05:43:21;;;;;;;60.90;32.50;;;;;;;9.09;61.60;100349.04;126032;1099;104293;-79
2021/10/12 05:45:50;;;;;;;65.53;33.53;;;;;;;9.05;61.32;100354.97;126189;1099;101901;-77
2021/10/12 05:48:22;;;;;;;67.10;32.77;;;;;;;9.05;61.12;100364.56;126254;1099;104172;-78
2021/10/12 05:50:51;;;;;;;73.73;34.27;;;;;;;9.08;60.86;100362.06;125949;1099;105637;-77
2021/10/12 05:53:25;;;;;;;67.80;34.20;;;;;;;9.13;61.34;100368.37;125864;1099;104159;-77
2021/10/12 05:56:02;;;;;;;65.37;35.17;;;;;;;9.18;60.74;100366.84;126024;1099;104137;-77
2021/10/12 05:58:35;;;;;;;67.40;33.90;;;;;;;9.22;60.91;100358.25;126042;1099;104618;-78
2021/10/12 06:01:09;;;;;;;63.30;33.53;;;;;;;9.23;61.19;100354.81;126018;1099;104316;-77
2021/10/12 06:03:43;;;;;;;65.10;32.60;;;;;;;9.23;60.57;100365.29;126039;1099;104226;-77
2021/10/12 06:06:13;;;;;;;66.70;35.17;;;;;;;9.24;60.74;100367.08;126063;1099;104217;-76
2021/10/12 06:08:43;;;;;;;58.80;31.10;;;;;;;9.27;60.68;100361.97;126162;1099;104206;-76
2021/10/12 06:11:13;;;;;;;66.67;33.00;;;;;;;9.28;60.48;100347.14;126043;1099;104255;-76
2021/10/12 06:13:45;;;;;;;68.47;34.60;;;;;;;9.31;61.30;100345.52;126128;1098;104144;-77
2021/10/12 06:16:14;;;;;;;67.33;33.67;;;;;;;9.38;61.29;100348.38;125848;1099;104263;-76
2021/10/12 06:18:43;;;;;;;65.95;36.05;;;;;;;9.41;60.67;100348.48;126010;1099;104162;-76
2021/10/12 06:21:11;;;;;;;66.97;33.87;;;;;;;9.44;60.93;100343.38;125948;1099;104162;-75
2021/10/12 06:23:42;;;;;;;64.27;34.77;;;;;;;9.43;60.97;100341.61;126031;1099;110431;-75
2021/10/12 06:26:11;;;;;;;62.77;35.60;;;;;;;9.39;61.25;100332.72;126054;1099;104232;-74
2021/10/12 06:28:39;;;;;;;65.20;34.95;;;;;;;9.35;61.34;100339.58;126004;1099;104624;-75
2021/10/12 06:31:08;;;;;;;67.10;34.40;;;;;;;9.32;60.62;100341.20;126138;1098;104345;-76
2021/10/12 06:33:37;;;;;;;66.63;34.17;;;;;;;9.30;61.29;100335.91;126157;1099;104232;-76
2021/10/12 06:36:07;;;;;;;73.77;34.20;;;;;;;9.30;61.39;100335.91;126102;1097;104153;-74
2021/10/12 06:38:38;;;;;;;87.73;39.50;;;;;;;9.31;61.41;100331.55;126095;1099;104143;-75
2021/10/12 06:41:07;;;;;;;84.03;38.30;;;;;;;9.31;60.77;100329.81;126073;1099;104214;-76
2021/10/12 06:43:35;;;;;;;92.87;39.17;;;;;;;9.32;60.75;100328.98;126084;1099;104268;-75
2021/10/12 06:46:06;;;;;;;89.20;39.33;;;;;;;9.37;60.73;100326.55;126140;1099;104168;-77
2021/10/12 06:48:35;;;;;;;94.10;42.70;;;;;;;9.45;60.97;100326.83;126260;1099;104172;-76
2021/10/12 06:51:03;;;;;;;96.23;39.37;;;;;;;9.53;61.24;100335.86;126078;1099;104225;-75
2021/10/12 06:53:31;;;;;;;94.43;39.60;;;;;;;9.63;61.36;100332.75;126073;1099;104322;-76
2021/10/12 06:56:03;;;;;;;84.93;36.77;;;;;;;9.77;61.41;100337.59;126127;1099;104319;-75
2021/10/12 06:58:32;;;;;;;83.53;35.93;;;;;;;9.87;61.02;100339.72;126077;1099;104140;-75
2021/10/12 07:01:01;;;;;;;74.50;34.73;;;;;;;9.99;60.85;100345.40;125914;1099;104287;-75
2021/10/12 07:03:31;;;;;;;77.97;37.63;;;;;;;10.11;61.02;100338.80;126077;1099;104206;-76
2021/10/12 07:06:03;;;;;;;76.43;36.30;;;;;;;10.18;61.17;100338.18;126013;1099;104194;-75
2021/10/12 07:08:32;;;;;;;67.03;34.30;;;;;;;10.29;61.25;100335.94;125959;1099;104770;-75
2021/10/12 07:11:01;;;;;;;66.87;31.60;;;;;;;10.38;60.93;100334.53;126167;1099;104187;-75
2021/10/12 07:13:30;;;;;;;69.40;28.67;;;;;;;10.48;61.06;100329.59;126067;1099;104201;-75
2021/10/12 07:15:59;;;;;;;62.10;29.97;;;;;;;10.56;60.32;100323.75;126152;1099;104296;-75
2021/10/12 07:18:30;;;;;;;62.43;31.40;;;;;;;10.66;60.17;100322.34;126226;1099;104268;-77
2021/10/12 07:21:00;;;;;;;58.60;31.20;;;;;;;10.76;60.76;100326.14;126099;1099;104364;-75
2021/10/12 07:23:29;;;;;;;64.93;30.70;;;;;;;10.84;60.03;100331.63;126051;1099;104143;-75
2021/10/12 07:25:59;;;;;;;69.87;32.57;;;;;;;10.96;60.34;100330.28;126184;1099;104211;-76
2021/10/12 07:28:31;;;;;;;69.10;33.27;;;;;;;11.07;59.93;100327.98;126077;1099;104277;-75
2021/10/12 07:31:03;;;;;;;64.20;32.57;;;;;;;11.21;59.97;100336.30;126128;1099;104197;-76
2021/10/12 07:33:33;;;;;;;63.57;32.07;;;;;;;11.32;59.75;100334.88;126114;1099;104630;-76
2021/10/12 07:36:05;;;;;;;63.60;32.10;;;;;;;11.42;59.55;100320.30;126086;1097;104338;-77
2021/10/12 07:38:34;;;;;;;68.07;33.00;;;;;;;11.53;59.21;100314.45;126222;1099;104284;-76
2021/10/12 07:41:03;;;;;;;64.90;33.13;;;;;;;11.59;59.48;100315.50;126124;1099;104281;-76
2021/10/12 07:43:34;;;;;;;68.67;33.13;;;;;;;11.64;59.26;100318.27;126013;1099;104229;-76
2021/10/12 07:46:06;;;;;;;68.17;32.93;;;;;;;11.66;58.87;100311.33;126001;1099;104172;-75
2021/10/12 07:48:36;;;;;;;71.63;32.20;;;;;;;11.74;59.18;100316.80;126204;1099;104213;-75
2021/10/12 07:51:04;;;;;;;73.47;34.30;;;;;;;11.81;58.85;100324.00;126196;1099;104172;-75
2021/10/12 07:53:38;;;;;;;61.87;32.37;;;;;;;11.87;58.85;100316.28;126133;1099;104219;-75
2021/10/12 07:56:10;;;;;;;67.83;33.27;;;;;;;11.95;58.80;100313.89;126201;1099;104137;-75
2021/10/12 07:58:38;;;;;;;68.40;34.17;;;;;;;12.03;58.62;100312.38;126138;1099;104217;-75
2021/10/12 08:01:06;;;;;;;63.50;33.55;;;;;;;12.14;58.33;100310.01;126219;1099;104271;-75
2021/10/12 08:03:41;;;;;;;66.57;35.10;;;;;;;12.25;58.34;100305.03;125981;1098;104264;-74
2021/10/12 08:06:12;;;;;;;68.77;34.33;;;;;;;12.39;58.47;100306.30;125947;1099;104140;-73
2021/10/12 08:08:41;;;;;;;66.43;34.13;;;;;;;12.51;58.07;100308.32;125265;1099;104300;-74
2021/10/12 08:11:09;;;;;;;56.93;29.43;;;;;;;12.59;57.59;100305.04;125922;1099;104364;-74
2021/10/12 08:13:37;;;;;;;59.60;29.73;;;;;;;12.65;57.29;100308.66;125282;1099;104169;-75
2021/10/12 08:16:09;;;;;;;55.55;30.35;;;;;;;12.72;57.29;100311.48;126021;1098;104310;-77
2021/10/12 08:18:38;;;;;;;58.77;31.67;;;;;;;12.76;57.05;100300.18;125968;1099;104283;-75
2021/10/12 08:21:08;;;;;;;58.77;30.03;;;;;;;12.84;57.26;100294.18;126062;1099;104204;-75
2021/10/12 08:23:40;;;;;;;59.03;31.13;;;;;;;12.86;57.11;100290.74;126002;1099;104355;-76
2021/10/12 08:26:09;;;;;;;56.17;30.77;;;;;;;12.90;57.04;100297.87;125269;1099;104175;-75
2021/10/12 08:28:42;;;;;;;59.73;30.97;;;;;;;12.94;56.74;100298.81;126079;1099;104287;-75
2021/10/12 08:31:16;;;;;;;59.90;31.10;;;;;;;13.01;56.75;100295.48;126108;1099;104200;-76
2021/10/12 08:33:48;;;;;;;63.13;31.03;;;;;;;13.06;56.39;100300.85;126024;1099;104418;-77
2021/10/12 08:36:18;;;;;;;58.77;29.03;;;;;;;13.16;55.97;100291.40;126066;1099;104457;-77
2021/10/12 08:38:53;;;;;;;54.93;28.53;;;;;;;13.22;56.48;100287.14;126035;1099;104348;-76
2021/10/12 08:41:24;;;;;;;;;;;;;;;13.31;55.56;100284.70;126014;1099;104149;-78
2021/10/12 08:43:58;;;;;;;61.67;28.00;;;;;;;13.40;55.95;100283.14;126099;1099;104191;-77
2021/10/12 08:46:34;;;;;;;54.53;27.17;;;;;;;13.53;55.63;100279.03;126139;1099;119776;-78
2021/10/12 08:49:12;;;;;;;57.10;28.10;;;;;;;13.61;55.69;100275.67;126197;1097;104283;-75
2021/10/12 08:51:46;;;;;;;53.23;28.43;;;;;;;13.73;56.21;100268.85;126160;1099;104152;-76
2021/10/12 08:54:15;;;;;;;50.40;28.43;;;;;;;13.79;55.58;100271.61;126036;1099;104210;-76
2021/10/12 08:56:47;;;;;;;55.67;27.57;;;;;;;13.83;55.44;100269.05;126157;1099;104150;-76
2021/10/12 08:59:17;;;;;;;55.17;28.23;;;;;;;13.92;55.01;100260.44;126151;1097;104257;-77
2021/10/12 09:01:58;;;;;;;52.40;25.80;;;;;;;14.00;55.00;100242.98;126172;1099;104207;-76
2021/10/12 09:04:41;;;;;;;48.50;25.82;;;;;;;14.02;54.82;100243.92;126161;1099;104174;-77
2021/10/12 09:07:24;;;;;;;51.63;25.57;;;;;;;13.96;54.95;100242.91;126163;1099;111874;-78
2021/10/12 09:10:04;;;;;;;43.47;22.47;;;;;;;13.97;55.22;100235.02;126181;1099;104268;-78
2021/10/12 09:12:48;;;;;;;42.27;22.53;;;;;;;13.92;54.90;100222.63;126142;1099;104245;-77
2021/10/12 09:15:19;;;;;;;45.50;22.17;;;;;;;13.89;54.50;100233.13;126096;1099;104309;-79
2021/10/12 09:17:51;;;;;;;52.67;24.57;;;;;;;13.96;55.04;100227.08;126229;1099;104297;-78
2021/10/12 09:20:33;;;;;;;44.20;24.30;;;;;;;14.06;54.90;100222.88;126181;1099;104255;-78
2021/10/12 09:23:09;;;;;;;47.93;24.80;;;;;;;14.28;54.35;100218.84;126023;1099;104272;-76
2021/10/12 09:25:45;;;;;;;51.17;24.03;;;;;;;14.39;54.54;100210.20;126138;1099;104198;-77
2021/10/12 09:28:28;;;;;;;44.07;23.33;;;;;;;14.37;54.38;100205.78;126008;1099;104153;-77
2021/10/12 09:31:03;;;;;;;47.13;24.53;;;;;;;14.33;54.84;100202.19;126194;1099;102017;-77
2021/10/12 09:33:47;;;;;;;41.60;23.90;;;;;;;14.36;54.52;100207.52;125934;1099;104143;-77
2021/10/12 09:36:28;;;;;;;42.57;20.73;;;;;;;14.52;54.20;100199.83;126169;1099;104153;-78
2021/10/12 09:39:01;;;;;;;33.40;17.30;;;;;;;14.70;53.64;100196.61;125383;1099;104205;-76
2021/10/12 09:41:32;;;;;;;34.60;17.73;;;;;;;14.85;53.92;100193.28;125312;1099;104171;-76
2021/10/12 09:44:12;;;;;;;35.57;18.37;;;;;;;15.00;54.15;100192.60;126176;1099;104297;-76
2021/10/12 09:46:45;;;;;;;35.37;20.10;;;;;;;15.04;53.47;100187.38;125294;1099;104290;-74
2021/10/12 09:49:17;;;;;;;;;;;;;;;15.13;52.58;100185.70;126082;1099;104332;-75
2021/10/12 09:51:57;;;;;;;38.70;19.80;;;;;;;15.17;53.55;100184.89;126068;1099;104348;-75
2021/10/12 09:54:31;;;;;;;39.13;20.27;;;;;;;15.22;53.42;100183.17;125996;1099;104147;-77
2021/10/12 09:57:05;;;;;;;37.37;20.13;;;;;;;15.43;53.51;100170.20;125371;1099;104162;-76
2021/10/12 09:59:35;;;;;;;38.23;19.20;;;;;;;15.66;53.13;100168.66;125276;1099;104162;-76
2021/10/12 10:02:17;;;;;;;43.10;21.17;;;;;;;15.88;52.50;100161.83;125415;1098;104425;-77
2021/10/12 10:04:50;;;;;;;38.23;21.53;;;;;;;15.99;52.31;100160.18;125267;1099;104404;-78
2021/10/12 10:07:27;;;;;;;41.40;22.05;;;;;;;16.09;52.64;100155.84;125854;1098;104365;-77
2021/10/12 10:10:04;;;;;;;42.17;22.03;;;;;;;16.07;52.65;100147.89;125804;1099;104226;-77
2021/10/12 10:12:35;;;;;;;43.83;23.13;;;;;;;16.03;52.60;100138.14;125914;1098;104193;-76
2021/10/12 10:15:08;;;;;;;44.03;22.47;;;;;;;16.00;51.63;100132.83;126000;1099;104166;-75
2021/10/12 10:17:41;;;;;;;45.27;24.33;;;;;;;15.84;50.88;100128.30;125883;1099;104325;-74
2021/10/12 10:20:14;;;;;;;38.67;20.77;;;;;;;15.67;50.00;100123.70;125747;1099;104341;-74
2021/10/12 10:22:48;;;;;;;41.47;21.47;;;;;;;15.50;50.77;100114.73;125925;1099;105045;-75
2021/10/12 10:25:29;;;;;;;40.93;20.80;;;;;;;15.43;51.54;100112.03;125995;1099;104223;-74
2021/10/12 10:28:15;;;;;;;39.03;21.13;;;;;;;15.45;51.30;100106.77;125994;1099;104338;-74
2021/10/12 10:30:51;;;;;;;40.00;21.47;;;;;;;15.52;50.76;100105.05;125948;1099;104563;-76
2021/10/12 10:33:28;;;;;;;41.20;21.10;;;;;;;15.50;51.09;100106.81;125209;1099;104182;-75
2021/10/12 10:36:00;;;;;;;32.83;16.90;;;;;;;15.37;50.61;100101.40;126060;1099;104657;-75
2021/10/12 10:38:34;;;;;;;33.30;17.37;;;;;;;15.40;50.71;100097.91;126042;1099;104370;-75
2021/10/12 10:41:27;;;;;;;33.67;17.42;;;;;;;15.38;50.41;100095.25;126001;1098;104188;-75
2021/10/12 10:44:00;;;;;;;31.90;17.50;;;;;;;15.40;50.13;100089.98;125432;1099;104612;-75
2021/10/12 10:46:42;;;;;;;36.15;18.45;;;;;;;15.44;50.73;100078.54;125232;1099;104338;-75
2021/10/12 10:49:13;;;;;;;33.93;18.27;;;;;;;15.50;50.62;100086.53;126107;1099;104219;-75
2021/10/12 10:51:59;;;;;;;33.50;17.47;;;;;;;15.53;50.67;100086.55;125923;1099;104470;-76
2021/10/12 10:55:01;;;;;;;34.53;17.07;;;;;;;15.66;49.90;100086.66;125410;1099;104153;-76
2021/10/12 10:57:31;;;;;;;31.20;16.77;;;;;;;15.78;50.39;100081.51;125469;1099;104328;-75
2021/10/12 11:00:28;;;;;;;36.60;16.50;;;;;;;15.87;50.27;100076.29;126171;1099;104137;-76
2021/10/12 11:03:13;;;;;;;35.07;17.37;;;;;;;15.96;50.68;100075.48;126069;1099;104270;-76
2021/10/12 11:06:00;;;;;;;37.17;17.53;;;;;;;15.99;50.25;100064.92;126158;1099;104137;-74
2021/10/12 11:08:40;;;;;;;32.37;17.80;;;;;;;15.99;48.98;100064.92;126038;1099;104313;-75
2021/10/12 11:11:17;;;;;;;36.17;15.83;;;;;;;15.94;49.77;100069.27;126124;1099;104244;-75
2021/10/12 11:14:37;;;;;;;28.80;15.13;;;;;;;15.93;48.75;100060.45;125817;1099;104226;-76
2021/10/12 11:17:12;;;;;;;32.03;15.97;;;;;;;15.96;49.57;100056.95;126145;1099;104194;-75